Rechercher aéroport 
image banner adimage banner adimage banner ad
image banner ad

7CL4 - Mcmwtc

Situé à Bridgeport, United States

ICAO - 7CL4, IATA -

Données fournies par Airmate  

Information générale

Coordonnées: N38°21'20" W119°31'8"
Élévation : 6779 feet MSL.
Variation magnétique : 15° East
Voir autres Aéroports à California

Données opérationnelles

Special qualification required
Heure actuelle UTC:
Heure actuelle locale:
Météo à : KTVL - Lake Tahoe ( 73 km )
METAR: KTVL 292053Z AUTO 00000KT 10SM VCTS FEW055 BKN110 26/08 A3025 RMK AO2 LTG DSNT W RAB02E32 SLP183 P0000 60000 T02560078 56010
TAF: KTVL 291720Z 2918/3018 18003KT P6SM FEW150 FM292000 04006KT P6SM BKN080 FM300100 19003KT P6SM VCSH SCT100 BKN180 FM300300 VRB03KT P6SM BKN090
Voir NOTAMs / SUP AIP / TFR affectant cet aéroport [VIEW]
Fréquences de communication: [VIEW]

Pistes:

Coordonnées de l'aéroport

Adresse: Bridgeport United States

Vue satellite de 7CL4